Alsip, Illinois
Current Conditions -  °F | °C
As of 5:53 AM on Saturday 25 Oct 2014 (Local Time) from KMDW Reporting Station
Haze Haze  
Wind Chill: 58°   Ceiling: 600
Heat Index: 58°   Visibility: 3mi
Dew Point: 55°   Wind: 14mph
Humidity: 90%   Direction: 290°WNW
Pressure: 29.92"   Gusts: NA
Location:  41.67°N, 87.73°W
Report Text: KMDW 251053Z 29012KT 3SM BR OVC006 14/13 A2992 RMK AO2 SLP128 T01440128
Loading
Personal Weather Stations






























Interactive Weather Map New forecast layout! Learn more

10-Day Weather Forecast

Advertisements
Track Severe Weather on mobile